createdAt,value
2019-05-25T00:01:01.156Z,5.63
2019-05-25T00:03:30.129Z,5.47
2019-05-25T00:05:59.006Z,5.40
2019-05-25T00:08:27.963Z,5.30
2019-05-25T00:10:56.974Z,5.50
2019-05-25T00:13:26.033Z,5.80
2019-05-25T00:15:55.509Z,4.90
2019-05-25T00:18:24.680Z,5.17
2019-05-25T00:20:53.677Z,5.90
2019-05-25T00:23:22.608Z,5.20
2019-05-25T00:25:51.412Z,5.17
2019-05-25T00:28:20.292Z,5.33
2019-05-25T00:30:49.171Z,5.40
2019-05-25T00:33:18.060Z,5.60
2019-05-25T00:35:46.832Z,6.30
2019-05-25T00:38:15.784Z,6.30
2019-05-25T00:40:44.703Z,6.07
2019-05-25T00:43:14.001Z,6.60
2019-05-25T00:45:43.024Z,6.87
2019-05-25T00:48:11.856Z,6.73
2019-05-25T00:50:40.988Z,7.57
2019-05-25T00:53:09.869Z,6.80
2019-05-25T00:55:38.892Z,6.83
2019-05-25T00:58:07.701Z,6.13
2019-05-25T01:00:37.056Z,7.43
2019-05-25T01:03:06.020Z,6.43
2019-05-25T01:05:35.056Z,7.53
2019-05-25T01:08:03.952Z,7.17
2019-05-25T01:10:32.848Z,7.30
2019-05-25T01:13:01.852Z,7.33
2019-05-25T01:15:31.131Z,7.40
2019-05-25T01:18:00.497Z,8.00
2019-05-25T01:20:29.540Z,7.27
2019-05-25T01:22:58.396Z,7.43
2019-05-25T01:25:27.369Z,8.00
2019-05-25T01:27:56.200Z,8.40
2019-05-25T01:30:25.140Z,7.63
2019-05-25T01:32:54.121Z,7.00
2019-05-25T01:35:22.956Z,7.00
2019-05-25T01:37:51.861Z,7.77
2019-05-25T01:40:21.256Z,7.90
2019-05-25T01:42:50.277Z,7.90
2019-05-25T01:45:19.264Z,7.40
2019-05-25T01:47:48.153Z,8.37
2019-05-25T01:50:17.116Z,8.10
2019-05-25T01:52:46.276Z,8.20
2019-05-25T01:55:15.213Z,7.83
2019-05-25T01:57:44.102Z,8.40
2019-05-25T02:00:13.562Z,8.77
2019-05-25T02:02:42.452Z,9.20
2019-05-25T02:05:11.402Z,8.37
2019-05-25T02:07:40.286Z,8.60
2019-05-25T02:10:10.117Z,8.10
2019-05-25T02:12:39.016Z,8.73
2019-05-25T02:15:09.340Z,8.90
2019-05-25T02:17:38.269Z,8.90
2019-05-25T02:20:08.191Z,10.47
2019-05-25T02:22:37.082Z,9.20
2019-05-25T02:25:17.105Z,10.50
2019-05-25T02:27:37.141Z,10.27
2019-05-25T02:30:06.405Z,10.10
2019-05-25T02:32:35.197Z,10.43
2019-05-25T02:35:04.120Z,10.30
2019-05-25T02:37:33.082Z,10.87
2019-05-25T02:40:02.076Z,9.30
2019-05-25T02:42:31.308Z,10.73
2019-05-25T02:45:00.081Z,9.43
2019-05-25T02:47:29.028Z,9.93
2019-05-25T02:49:57.961Z,10.43
2019-05-25T02:52:26.916Z,10.77
2019-05-25T02:54:55.842Z,9.90
2019-05-25T02:57:24.820Z,10.67
2019-05-25T02:59:54.099Z,9.93
2019-05-25T03:02:23.865Z,10.03
2019-05-25T03:04:52.729Z,10.87
2019-05-25T03:07:22.120Z,10.90
2019-05-25T03:09:53.035Z,10.13
2019-05-25T03:12:22.916Z,11.03
2019-05-25T03:14:51.826Z,10.90
2019-05-25T03:17:20.743Z,10.40
2019-05-25T03:19:50.644Z,11.53
2019-05-25T03:22:19.616Z,11.40
2019-05-25T03:24:48.641Z,12.50
2019-05-25T03:27:17.824Z,12.30
2019-05-25T03:29:46.820Z,11.97
2019-05-25T03:32:15.967Z,11.20
2019-05-25T03:34:44.865Z,13.97
2019-05-25T03:37:13.982Z,12.20
2019-05-25T03:39:42.856Z,11.93
2019-05-25T03:42:11.692Z,12.67
2019-05-25T03:44:40.537Z,11.73
2019-05-25T03:47:09.613Z,11.27
2019-05-25T03:49:38.539Z,11.50
2019-05-25T03:52:07.893Z,11.40
2019-05-25T03:54:36.768Z,13.20
2019-05-25T03:57:05.716Z,12.23
2019-05-25T03:59:34.749Z,11.60
2019-05-25T04:02:03.832Z,12.37
2019-05-25T04:04:32.746Z,12.73
2019-05-25T04:07:01.721Z,12.10
2019-05-25T04:09:30.508Z,12.60
2019-05-25T04:11:59.494Z,13.10
2019-05-25T04:14:28.336Z,10.63
2019-05-25T04:16:57.146Z,10.60
2019-05-25T04:19:25.988Z,11.23
2019-05-25T04:21:54.892Z,10.83
2019-05-25T04:24:23.840Z,10.93
2019-05-25T04:26:52.650Z,10.77
2019-05-25T04:29:21.552Z,12.63
2019-05-25T04:35:18.720Z,11.10
2019-05-25T04:37:47.680Z,10.83
2019-05-25T04:40:16.684Z,11.47
2019-05-25T04:42:45.616Z,10.80
2019-05-25T04:45:15.489Z,11.50
2019-05-25T04:47:44.477Z,11.17
2019-05-25T04:50:14.466Z,12.10
2019-05-25T04:52:43.577Z,11.50
2019-05-25T04:55:12.573Z,12.03
2019-05-25T04:57:41.460Z,11.73
2019-05-25T05:00:10.892Z,11.57
2019-05-25T05:02:39.757Z,12.00
2019-05-25T05:05:08.949Z,11.00
2019-05-25T05:07:37.852Z,11.10
2019-05-25T05:10:07.229Z,10.53
2019-05-25T05:12:36.131Z,11.27
2019-05-25T05:15:06.168Z,10.43
2019-05-25T05:17:35.056Z,10.83
2019-05-25T05:20:05.146Z,11.43
2019-05-25T05:22:34.157Z,10.63
2019-05-25T05:25:03.032Z,10.03
2019-05-25T05:27:32.023Z,9.70
2019-05-25T05:30:00.939Z,9.67
2019-05-25T05:32:30.194Z,10.20
2019-05-25T05:34:59.053Z,10.97
2019-05-25T05:37:29.192Z,9.93
2019-05-25T05:39:59.174Z,10.57
2019-05-25T05:42:28.740Z,9.60
2019-05-25T05:44:58.996Z,8.30
2019-05-25T05:47:31.276Z,9.10
2019-05-25T05:50:02.868Z,8.00
2019-05-25T05:52:35.108Z,8.50
2019-05-25T05:55:04.733Z,7.67
2019-05-25T05:57:33.681Z,7.53
2019-05-25T06:00:02.676Z,7.70
2019-05-25T06:02:31.748Z,8.60
2019-05-25T06:05:00.748Z,7.30
2019-05-25T06:07:29.641Z,7.90
2019-05-25T06:09:58.613Z,6.90
2019-05-25T06:12:27.620Z,8.07
2019-05-25T06:14:56.537Z,8.40
2019-05-25T06:17:25.456Z,7.40
2019-05-25T06:19:54.419Z,7.13
2019-05-25T06:22:23.333Z,8.47
2019-05-25T06:24:52.286Z,6.90
2019-05-25T06:27:27.364Z,6.87
2019-05-25T06:29:52.768Z,8.60
2019-05-25T06:32:21.741Z,8.00
2019-05-25T06:34:50.598Z,7.37
2019-05-25T06:37:19.561Z,8.20
2019-05-25T06:39:48.484Z,8.43
2019-05-25T06:42:17.572Z,7.30
2019-05-25T06:44:46.554Z,7.47
2019-05-25T06:47:15.512Z,6.67
2019-05-25T06:49:44.473Z,7.20
2019-05-25T06:52:13.376Z,6.50
2019-05-25T06:54:42.285Z,7.27
2019-05-25T06:57:11.324Z,7.47
2019-05-25T06:59:40.148Z,6.40
2019-05-25T07:02:09.035Z,6.17
2019-05-25T07:04:37.956Z,6.43
2019-05-25T07:07:06.841Z,5.60
2019-05-25T07:09:35.745Z,5.90
2019-05-25T07:12:05.034Z,5.80
2019-05-25T07:14:34.055Z,8.07
2019-05-25T07:17:03.253Z,7.40
2019-05-25T07:19:32.275Z,8.30
2019-05-25T07:22:01.150Z,7.57
2019-05-25T07:24:30.268Z,7.30
2019-05-25T07:26:59.132Z,6.90
2019-05-25T07:29:28.068Z,5.67
2019-05-25T07:31:56.904Z,7.80
2019-05-25T07:34:25.861Z,7.67
2019-05-25T07:36:54.884Z,8.50
2019-05-25T07:39:23.772Z,6.37
2019-05-25T07:41:52.677Z,6.97
2019-05-25T07:44:21.643Z,7.27
2019-05-25T07:46:50.548Z,6.57
2019-05-25T07:49:19.360Z,7.30
2019-05-25T07:51:48.300Z,7.73
2019-05-25T07:54:17.272Z,7.00
2019-05-25T07:56:46.202Z,7.20
2019-05-25T07:59:15.208Z,7.47
2019-05-25T08:01:44.397Z,7.47
2019-05-25T08:04:13.260Z,7.47
2019-05-25T08:06:42.037Z,7.47
2019-05-25T08:09:10.982Z,8.03
2019-05-25T08:11:39.874Z,8.23
2019-05-25T08:14:08.760Z,7.00
2019-05-25T08:16:37.668Z,8.30
2019-05-25T08:19:06.541Z,7.00
2019-05-25T08:21:35.524Z,6.63
2019-05-25T08:24:04.512Z,6.80
2019-05-25T08:26:33.660Z,6.90
2019-05-25T08:29:02.620Z,7.10
2019-05-25T08:31:32.098Z,8.30
2019-05-25T08:34:01.377Z,8.00
2019-05-25T08:36:30.768Z,8.50
2019-05-25T08:38:59.670Z,7.20
2019-05-25T08:41:28.571Z,6.70
2019-05-25T08:43:57.483Z,8.03
2019-05-25T08:46:26.449Z,7.07
2019-05-25T08:48:55.288Z,9.50
2019-05-25T08:51:25.380Z,6.97
2019-05-25T08:53:54.388Z,7.53
2019-05-25T08:56:23.179Z,7.47
2019-05-25T08:58:55.351Z,7.37
2019-05-25T09:01:22.908Z,7.07
2019-05-25T09:03:52.072Z,6.30
2019-05-25T09:06:20.956Z,8.67
2019-05-25T09:08:49.849Z,6.90
2019-05-25T09:11:18.800Z,7.40
2019-05-25T09:13:47.696Z,6.07
2019-05-25T09:16:16.638Z,6.10
2019-05-25T09:18:45.864Z,7.73
2019-05-25T09:21:14.708Z,9.83
2019-05-25T09:23:43.781Z,6.47
2019-05-25T09:26:13.521Z,7.03
2019-05-25T09:28:42.744Z,7.57
2019-05-25T09:31:11.804Z,8.10
2019-05-25T09:33:40.760Z,8.07
2019-05-25T09:36:09.662Z,6.53
2019-05-25T09:38:38.568Z,7.40
2019-05-25T09:41:07.433Z,7.43
2019-05-25T09:43:36.400Z,7.20
2019-05-25T09:46:05.324Z,7.67
2019-05-25T09:48:37.935Z,7.20
2019-05-25T09:51:04.953Z,8.90
2019-05-25T09:53:33.855Z,7.30
2019-05-25T09:56:03.048Z,7.90
2019-05-25T09:58:31.921Z,6.93
2019-05-25T10:01:00.920Z,6.10
2019-05-25T10:03:30.024Z,8.50
2019-05-25T10:05:58.936Z,8.40
2019-05-25T10:08:28.024Z,7.13
2019-05-25T10:10:56.894Z,7.50
2019-05-25T10:13:25.792Z,6.60
2019-05-25T10:15:54.773Z,7.03
2019-05-25T10:18:23.677Z,6.60
2019-05-25T10:20:52.579Z,6.80
2019-05-25T10:23:21.440Z,8.57
2019-05-25T10:25:50.323Z,8.57
2019-05-25T10:28:19.275Z,6.20
2019-05-25T10:30:48.151Z,6.40
2019-05-25T10:33:17.033Z,5.73
2019-05-25T10:35:46.268Z,6.13
2019-05-25T10:38:15.113Z,6.97
2019-05-25T10:40:43.900Z,6.13
2019-05-25T10:43:12.811Z,6.90
2019-05-25T10:45:41.676Z,6.30
2019-05-25T10:48:10.687Z,7.20
2019-05-25T10:50:39.552Z,6.03
2019-05-25T10:53:08.913Z,6.67
2019-05-25T10:55:38.368Z,8.33
2019-05-25T10:58:07.336Z,7.20
2019-05-25T11:00:36.297Z,6.60
2019-05-25T11:03:05.202Z,6.63
2019-05-25T11:05:34.081Z,7.43
2019-05-25T11:08:02.972Z,5.97
2019-05-25T11:10:31.785Z,5.60
2019-05-25T11:13:00.557Z,7.33
2019-05-25T11:15:29.516Z,6.97
2019-05-25T11:17:58.420Z,6.90
2019-05-25T11:20:27.473Z,5.50
2019-05-25T11:22:56.368Z,4.90
2019-05-25T11:25:25.249Z,5.60
2019-05-25T11:27:54.120Z,5.83
2019-05-25T11:30:23.325Z,5.47
2019-05-25T11:32:52.217Z,6.10
2019-05-25T11:35:21.632Z,6.10
2019-05-25T11:37:50.804Z,5.63
2019-05-25T11:40:20.560Z,6.83
2019-05-25T11:42:49.501Z,6.80
2019-05-25T11:45:19.016Z,5.70
2019-05-25T11:47:47.904Z,7.43
2019-05-25T11:50:17.160Z,6.43
2019-05-25T11:52:46.092Z,7.53
2019-05-25T11:55:15.405Z,6.10
2019-05-25T11:57:44.280Z,6.57
2019-05-25T12:00:24.421Z,6.20
2019-05-25T12:02:45.241Z,4.90
2019-05-25T12:05:15.060Z,6.83
2019-05-25T12:07:45.048Z,6.67
2019-05-25T12:10:16.139Z,6.80
2019-05-25T12:12:45.005Z,5.77
2019-05-25T12:15:14.384Z,6.00
2019-05-25T12:17:43.157Z,5.13
2019-05-25T12:20:13.084Z,4.43
2019-05-25T12:22:41.970Z,4.73
2019-05-25T12:25:11.677Z,4.10
2019-05-25T12:27:40.533Z,3.47
2019-05-25T12:30:10.576Z,3.50
2019-05-25T12:32:39.559Z,2.80
2019-05-25T12:35:09.730Z,2.50
2019-05-25T12:37:38.575Z,3.30
2019-05-25T12:40:08.293Z,3.17
2019-05-25T12:42:37.268Z,3.00
2019-05-25T12:45:07.292Z,2.60
2019-05-25T12:47:36.233Z,2.20
2019-05-25T12:50:07.990Z,2.30
2019-05-25T12:52:36.972Z,2.60
2019-05-25T12:55:06.305Z,2.90
2019-05-25T12:57:35.070Z,2.30
2019-05-25T13:00:14.784Z,2.70
2019-05-25T13:02:35.494Z,1.83
2019-05-25T13:05:05.128Z,1.73
2019-05-25T13:07:38.548Z,2.10
2019-05-25T13:10:08.005Z,1.90
2019-05-25T13:12:36.895Z,2.07
2019-05-25T13:15:06.525Z,2.03
2019-05-25T13:17:35.492Z,2.50
2019-05-25T13:20:05.088Z,2.33
2019-05-25T13:22:34.264Z,1.83
2019-05-25T13:25:03.262Z,2.10
2019-05-25T13:27:32.195Z,2.10
2019-05-25T13:30:03.267Z,1.83
2019-05-25T13:32:32.098Z,1.80
2019-05-25T13:35:00.884Z,1.83
2019-05-25T13:37:30.080Z,1.50
2019-05-25T13:39:59.061Z,1.53
2019-05-25T13:42:28.117Z,1.80
2019-05-25T13:44:57.086Z,1.80
2019-05-25T13:47:26.036Z,1.90
2019-05-25T13:49:55.027Z,1.50
2019-05-25T13:52:24.012Z,1.53
2019-05-25T13:54:52.842Z,1.50
2019-05-25T13:57:21.787Z,1.43
2019-05-25T13:59:50.584Z,1.70
2019-05-25T14:02:19.459Z,1.30
2019-05-25T14:04:48.436Z,1.30
2019-05-25T14:07:17.314Z,1.60
2019-05-25T14:09:46.214Z,1.50
2019-05-25T14:12:15.402Z,1.30
2019-05-25T14:14:44.181Z,1.50
2019-05-25T14:17:13.087Z,2.40
2019-05-25T14:19:42.258Z,2.33
2019-05-25T14:22:11.070Z,1.40
2019-05-25T14:24:39.969Z,1.47
2019-05-25T14:27:08.877Z,1.50
2019-05-25T14:29:37.843Z,1.37
2019-05-25T14:32:06.669Z,1.80
2019-05-25T14:34:35.600Z,2.13
2019-05-25T14:37:04.528Z,1.57
2019-05-25T14:39:33.484Z,1.70
2019-05-25T14:42:02.415Z,1.80
2019-05-25T14:44:31.300Z,1.97
2019-05-25T14:47:00.076Z,1.80
2019-05-25T14:49:28.914Z,1.60
2019-05-25T14:51:57.776Z,1.60
2019-05-25T14:54:26.564Z,1.73
2019-05-25T14:56:55.631Z,1.90
2019-05-25T14:59:24.812Z,2.00
2019-05-25T15:02:02.459Z,1.80
2019-05-25T15:04:24.316Z,1.83
2019-05-25T15:06:53.180Z,1.80
2019-05-25T15:09:22.125Z,1.77
2019-05-25T15:11:53.866Z,1.97
2019-05-25T15:14:21.680Z,1.77
2019-05-25T15:16:50.564Z,1.43
2019-05-25T15:19:19.645Z,1.87
2019-05-25T15:21:48.570Z,1.83
2019-05-25T15:24:17.682Z,1.60
2019-05-25T15:26:46.576Z,2.10
2019-05-25T15:29:15.958Z,1.90
2019-05-25T15:31:45.242Z,2.20
2019-05-25T15:34:14.121Z,2.10
2019-05-25T15:36:43.185Z,1.70
2019-05-25T15:39:12.233Z,1.50
2019-05-25T15:41:41.257Z,2.80
2019-05-25T15:44:10.200Z,1.80
2019-05-25T15:46:39.901Z,1.83
2019-05-25T15:49:08.924Z,1.80
2019-05-25T15:51:37.737Z,1.80
2019-05-25T15:54:10.332Z,1.67
2019-05-25T15:56:37.513Z,1.90
2019-05-25T15:59:06.480Z,2.00
2019-05-25T16:01:35.294Z,2.00
2019-05-25T16:04:04.429Z,1.60
2019-05-25T16:06:33.657Z,2.30
2019-05-25T16:09:03.045Z,2.20
2019-05-25T16:11:32.364Z,1.80
2019-05-25T16:14:01.355Z,1.90
2019-05-25T16:16:30.498Z,1.73
2019-05-25T16:19:00.098Z,2.03
2019-05-25T16:21:28.980Z,2.40
2019-05-25T16:23:58.029Z,2.30
2019-05-25T16:26:26.932Z,2.40
2019-05-25T16:28:55.829Z,2.00
2019-05-25T16:31:24.687Z,2.10
2019-05-25T16:33:53.965Z,2.10
2019-05-25T16:36:22.844Z,2.60
2019-05-25T16:38:51.788Z,2.37
2019-05-25T16:41:20.573Z,2.17
2019-05-25T16:43:50.040Z,1.90
2019-05-25T16:46:19.036Z,2.37
2019-05-25T16:48:48.186Z,2.83
2019-05-25T16:51:17.309Z,1.90
2019-05-25T16:53:46.216Z,1.77
2019-05-25T16:56:15.295Z,2.03
2019-05-25T16:58:44.220Z,2.40
2019-05-25T17:01:13.149Z,2.17
2019-05-25T17:03:42.052Z,2.40
2019-05-25T17:06:14.317Z,2.60
2019-05-25T17:08:43.324Z,2.30
2019-05-25T17:11:12.500Z,2.23
2019-05-25T17:13:41.476Z,2.43
2019-05-25T17:16:10.329Z,2.30
2019-05-25T17:18:39.232Z,2.20
2019-05-25T17:21:08.285Z,2.23
2019-05-25T17:23:37.927Z,2.63
2019-05-25T17:26:06.854Z,2.27
2019-05-25T17:28:35.853Z,2.23
2019-05-25T17:31:08.040Z,2.80
2019-05-25T17:33:46.085Z,2.40
2019-05-25T17:36:08.075Z,2.50
2019-05-25T17:38:37.070Z,2.60
2019-05-25T17:41:05.969Z,2.40
2019-05-25T17:43:35.137Z,3.27
2019-05-25T17:46:04.334Z,2.40
2019-05-25T17:48:33.425Z,2.60
2019-05-25T17:51:02.248Z,2.87
2019-05-25T17:53:31.109Z,2.83
2019-05-25T17:56:00.013Z,2.60
2019-05-25T17:58:29.023Z,2.93
2019-05-25T18:00:57.789Z,2.63
2019-05-25T18:03:26.777Z,2.63
2019-05-25T18:05:55.676Z,2.83
2019-05-25T18:08:24.825Z,3.10
2019-05-25T18:10:54.702Z,3.23
2019-05-25T18:13:24.102Z,3.03
2019-05-25T18:15:53.052Z,3.10
2019-05-25T18:18:21.859Z,2.67
2019-05-25T18:20:51.347Z,3.90
2019-05-25T18:23:20.335Z,3.53
2019-05-25T18:25:49.369Z,3.70
2019-05-25T18:28:18.257Z,3.90
2019-05-25T18:30:47.268Z,3.90
2019-05-25T18:33:16.223Z,4.40
2019-05-25T18:35:45.040Z,4.90
2019-05-25T18:38:14.120Z,4.20
2019-05-25T18:40:42.973Z,4.40
2019-05-25T18:43:11.785Z,4.50
2019-05-25T18:45:40.965Z,4.40
2019-05-25T18:48:10.293Z,4.17
2019-05-25T18:50:39.162Z,4.37
2019-05-25T18:53:08.236Z,4.90
2019-05-25T18:55:37.244Z,4.20
2019-05-25T18:58:06.140Z,4.40
2019-05-25T19:00:35.408Z,5.00
2019-05-25T19:03:04.836Z,4.97
2019-05-25T19:05:33.737Z,4.30
2019-05-25T19:08:02.655Z,5.10
2019-05-25T19:10:33.681Z,4.70
2019-05-25T19:13:02.691Z,4.27
2019-05-25T19:15:31.565Z,5.30
2019-05-25T19:18:00.432Z,5.00
2019-05-25T19:20:29.380Z,5.13
2019-05-25T19:22:58.286Z,5.23
2019-05-25T19:25:27.077Z,5.77
2019-05-25T19:27:55.944Z,5.83
2019-05-25T19:30:25.161Z,5.50
2019-05-25T19:32:54.144Z,5.23
2019-05-25T19:35:23.103Z,5.90
2019-05-25T19:37:52.427Z,5.30
2019-05-25T19:40:21.784Z,6.10
2019-05-25T19:42:50.767Z,5.63
2019-05-25T19:45:21.133Z,5.80
2019-05-25T19:47:50.136Z,5.57
2019-05-25T19:50:19.446Z,5.97
2019-05-25T19:52:48.395Z,5.80
2019-05-25T19:55:17.332Z,6.57
2019-05-25T19:57:46.272Z,7.10
2019-05-25T20:00:15.944Z,6.95
2019-05-25T20:02:45.110Z,7.00
2019-05-25T20:05:16.938Z,7.10
2019-05-25T20:07:45.291Z,7.30
2019-05-25T20:10:14.996Z,7.60
2019-05-25T20:12:44.090Z,8.10
2019-05-25T20:15:13.528Z,7.63
2019-05-25T20:17:42.709Z,8.73
2019-05-25T20:20:11.780Z,8.13
2019-05-25T20:22:41.001Z,7.83
2019-05-25T20:25:10.048Z,7.40
2019-05-25T20:27:39.009Z,8.47
2019-05-25T20:30:08.253Z,7.60
2019-05-25T20:32:37.473Z,8.40
2019-05-25T20:35:07.500Z,7.77
2019-05-25T20:37:36.380Z,8.80
2019-05-25T20:40:06.103Z,8.40
2019-05-25T20:42:35.082Z,7.83
2019-05-25T20:45:04.511Z,9.00
2019-05-25T20:47:33.308Z,8.10
2019-05-25T20:50:02.382Z,9.87
2019-05-25T20:52:31.236Z,8.57
2019-05-25T20:55:00.491Z,6.37
2019-05-25T20:57:29.581Z,8.60
2019-05-25T20:59:58.562Z,8.20
2019-05-25T21:02:27.352Z,8.50
2019-05-25T21:04:56.376Z,8.83
2019-05-25T21:07:25.179Z,10.00
2019-05-25T21:09:53.980Z,9.53
2019-05-25T21:12:22.949Z,9.33
2019-05-25T21:14:51.835Z,8.90
2019-05-25T21:17:20.737Z,9.37
2019-05-25T21:19:49.596Z,8.87
2019-05-25T21:22:18.452Z,9.60
2019-05-25T21:24:47.368Z,9.20
2019-05-25T21:27:16.272Z,8.47
2019-05-25T21:29:45.065Z,9.00
2019-05-25T21:32:13.944Z,8.37
2019-05-25T21:34:42.880Z,8.23
2019-05-25T21:37:11.917Z,9.37
2019-05-25T21:39:40.725Z,9.40
2019-05-25T21:42:09.717Z,9.23
2019-05-25T21:44:38.724Z,9.30
2019-05-25T21:47:07.719Z,9.40
2019-05-25T21:49:36.656Z,10.87
2019-05-25T21:52:05.993Z,9.50
2019-05-25T21:54:37.688Z,9.33
2019-05-25T21:57:06.656Z,9.23
2019-05-25T21:59:35.733Z,10.00
2019-05-25T22:02:04.812Z,9.33
2019-05-25T22:04:33.681Z,9.80
2019-05-25T22:07:02.612Z,9.40
2019-05-25T22:09:31.517Z,10.20
2019-05-25T22:12:00.652Z,9.90
2019-05-25T22:14:29.496Z,9.47
2019-05-25T22:16:58.384Z,9.10
2019-05-25T22:19:27.360Z,10.33
2019-05-25T22:21:56.266Z,8.90
2019-05-25T22:24:25.191Z,8.80
2019-05-25T22:26:53.960Z,9.27
2019-05-25T22:29:23.463Z,9.00
2019-05-25T22:31:52.220Z,9.03
2019-05-25T22:34:21.025Z,9.50
2019-05-25T22:36:50.022Z,9.23
2019-05-25T22:39:19.876Z,9.20
2019-05-25T22:41:48.705Z,10.10
2019-05-25T22:44:17.605Z,8.87
2019-05-25T22:46:46.585Z,9.03
2019-05-25T22:49:15.660Z,9.20
2019-05-25T22:51:44.560Z,8.43
2019-05-25T22:54:13.541Z,8.50
2019-05-25T22:56:42.501Z,9.53
2019-05-25T22:59:11.410Z,10.30
2019-05-25T23:01:40.318Z,10.27
2019-05-25T23:04:09.222Z,10.07
2019-05-25T23:06:38.088Z,9.57
2019-05-25T23:09:07.667Z,10.27
2019-05-25T23:11:36.592Z,10.70
2019-05-25T23:14:09.573Z,9.67
2019-05-25T23:16:36.572Z,9.73
2019-05-25T23:19:05.582Z,10.27
2019-05-25T23:21:34.533Z,10.53
2019-05-25T23:24:03.506Z,9.80
2019-05-25T23:26:32.324Z,10.80
2019-05-25T23:29:01.195Z,10.67
2019-05-25T23:31:30.064Z,10.67
2019-05-25T23:33:58.980Z,10.87
2019-05-25T23:36:27.911Z,11.10
2019-05-25T23:38:57.009Z,9.80
2019-05-25T23:41:26.229Z,9.90
2019-05-25T23:43:55.085Z,9.90
2019-05-25T23:46:24.092Z,10.10
2019-05-25T23:48:52.988Z,9.33
2019-05-25T23:51:22.057Z,9.60
2019-05-25T23:53:50.944Z,9.73
2019-05-25T23:56:19.868Z,11.03
2019-05-25T23:58:48.854Z,10.20
